Terminal Aerodrome Forecast
Issued by NWS

Home | Current Version | Previous Version | Text Only | Print | Product List | Glossary On
Versions: 1 2 3 4 5 6 7 8 9 10 11 12 13
000
FTUS45 KLKN 300531
TAFTPH
TAF
KTPH 300531Z 3006/3106 36007KT P6SM SCT120
     FM301800 VRB06KT P6SM FEW120
     FM302100 26010G20KT P6SM VCTS SCT120CB
     FM302330 27015G30KT P6SM VCTS BKN120CB
     FM310200 32012KT P6SM SCT120=

USA.gov is the U.S. government's official web portal to all federal, state and local government web resources and services.